Time;durP1;ratioP1;P1;durP2;ratioP2;P2;SDS_P1;SDS_P2;PMS_P1;PMS_P2;Temp;Humidity;BMP_temperature;BMP_pressure;BME280_temperature;BME280_humidity;BME280_pressure;Samples;Min_cycle;Max_cycle;Signal;HPM_P1;HPM_P2
2024/01/10 00:01:03;;;;;;;4.50;2.43;;;;;;;;;;4958679;29;20051;-57
2024/01/10 00:03:29;;;;;;;7.75;3.17;;;;;;;;;;4964953;29;20023;-55
2024/01/10 00:05:55;;;;;;;6.38;2.55;;;;;;;;;;4960497;29;20036;-55
2024/01/10 00:08:20;;;;;;;6.45;2.47;;;;;;;;;;4961603;29;20043;-58
2024/01/10 00:10:46;;;;;;;4.50;2.75;;;;;;;;;;4958645;29;20036;-58
2024/01/10 00:13:11;;;;;;;9.47;3.33;;;;;;;;;;4965509;29;20042;-58
2024/01/10 00:15:37;;;;;;;7.82;3.17;;;;;;;;;;4961464;29;20035;-54
2024/01/10 00:18:02;;;;;;;6.45;2.72;;;;;;;;;;4961072;29;20109;-59
2024/01/10 00:20:28;;;;;;;9.88;2.70;;;;;;;;;;4958661;29;20091;-58
2024/01/10 00:22:53;;;;;;;7.50;2.90;;;;;;;;;;4962187;29;20035;-55
2024/01/10 00:25:19;;;;;;;5.43;2.40;;;;;;;;;;4961331;29;20036;-56
2024/01/10 00:27:44;;;;;;;5.90;2.30;;;;;;;;;;4958451;29;20063;-59
2024/01/10 00:30:10;;;;;;;11.03;3.63;;;;;;;;;;4958375;29;20043;-57
2024/01/10 00:32:35;;;;;;;6.35;2.60;;;;;;;;;;4959688;29;20042;-58
2024/01/10 00:35:00;;;;;;;4.43;2.03;;;;;;;;;;4960580;29;20043;-59
2024/01/10 00:37:26;;;;;;;10.55;2.85;;;;;;;;;;4964578;29;20031;-59
2024/01/10 00:39:52;;;;;;;6.75;2.85;;;;;;;;;;4961262;29;20083;-57
2024/01/10 00:42:18;;;;;;;6.55;2.67;;;;;;;;;;4958383;29;20059;-60
2024/01/10 00:44:44;;;;;;;7.18;2.78;;;;;;;;;;4964138;29;20044;-60
2024/01/10 00:47:10;;;;;;;6.47;2.77;;;;;;;;;;4962109;29;20035;-59
2024/01/10 00:49:35;;;;;;;;;;;;;;;;;;4961082;29;20028;-59
2024/01/10 00:52:01;;;;;;;5.47;2.33;;;;;;;;;;4941015;29;19910;-59
2024/01/10 00:54:26;;;;;;;6.20;2.58;;;;;;;;;;4968036;29;20043;-58
2024/01/10 00:56:52;;;;;;;7.93;2.70;;;;;;;;;;4957647;29;20049;-58
2024/01/10 00:59:17;;;;;;;4.77;2.30;;;;;;;;;;4957573;29;20024;-60
2024/01/10 01:01:43;;;;;;;5.65;2.35;;;;;;;;;;4957586;29;20032;-60
2024/01/10 01:04:08;;;;;;;6.78;2.58;;;;;;;;;;4963954;29;20028;-59
2024/01/10 01:06:34;;;;;;;5.47;2.80;;;;;;;;;;4967472;29;20059;-59
2024/01/10 01:08:59;;;;;;;6.27;3.20;;;;;;;;;;4959512;29;20031;-59
2024/01/10 01:11:25;;;;;;;4.55;2.47;;;;;;;;;;4957484;29;20364;-58
2024/01/10 01:13:50;;;;;;;8.25;2.53;;;;;;;;;;4964237;29;20099;-59
2024/01/10 01:16:16;;;;;;;6.25;3.40;;;;;;;;;;4957260;29;20056;-58
2024/01/10 01:18:45;;;;;;;6.57;2.78;;;;;;;;;;4958786;29;20051;-58
2024/01/10 01:21:10;;;;;;;6.97;3.03;;;;;;;;;;4957507;29;20024;-55
2024/01/10 01:23:35;;;;;;;6.23;2.80;;;;;;;;;;4957197;29;20042;-59
2024/01/10 01:26:01;;;;;;;5.73;2.40;;;;;;;;;;4957193;29;20290;-58
2024/01/10 01:28:26;;;;;;;5.53;2.83;;;;;;;;;;4969484;29;20046;-56
2024/01/10 01:30:52;;;;;;;5.32;2.30;;;;;;;;;;4967468;29;20037;-60
2024/01/10 01:33:17;;;;;;;7.85;3.42;;;;;;;;;;4960572;29;20031;-58
2024/01/10 01:35:43;;;;;;;5.80;2.45;;;;;;;;;;4956918;29;20036;-57
2024/01/10 01:38:09;;;;;;;5.00;2.45;;;;;;;;;;4959363;29;20055;-60
2024/01/10 01:40:34;;;;;;;5.53;2.78;;;;;;;;;;4957048;29;20039;-59
2024/01/10 01:43:00;;;;;;;4.87;2.13;;;;;;;;;;4959236;29;20055;-57
2024/01/10 01:45:26;;;;;;;;;;;;;;;;;;4967852;29;20031;-57
2024/01/10 01:47:51;;;;;;;7.90;2.80;;;;;;;;;;4957163;29;19911;-59
2024/01/10 01:50:17;;;;;;;4.57;2.17;;;;;;;;;;4956732;29;20036;-60
2024/01/10 01:52:43;;;;;;;7.70;3.03;;;;;;;;;;4956775;29;20103;-58
2024/01/10 01:55:09;;;;;;;8.25;3.45;;;;;;;;;;4959689;29;20067;-58
2024/01/10 01:57:36;;;;;;;7.20;2.65;;;;;;;;;;4962778;29;20148;-60
2024/01/10 02:00:01;;;;;;;6.80;2.70;;;;;;;;;;4969967;29;20087;-58
2024/01/10 02:02:27;;;;;;;6.13;3.05;;;;;;;;;;4956861;29;20039;-57
2024/01/10 02:04:52;;;;;;;9.20;3.53;;;;;;;;;;4963293;29;20038;-60
2024/01/10 02:07:17;;;;;;;5.68;2.75;;;;;;;;;;4965666;29;20047;-58
2024/01/10 02:09:43;;;;;;;7.85;3.65;;;;;;;;;;4967970;29;20091;-59
2024/01/10 02:12:09;;;;;;;6.95;2.85;;;;;;;;;;4963235;29;20050;-59
2024/01/10 02:14:35;;;;;;;8.40;2.43;;;;;;;;;;4974678;29;20059;-59
2024/01/10 02:17:00;;;;;;;10.52;3.75;;;;;;;;;;4962628;29;20290;-59
2024/01/10 02:19:27;;;;;;;5.93;2.63;;;;;;;;;;4962931;29;20042;-56
2024/01/10 02:21:53;;;;;;;5.22;2.67;;;;;;;;;;4962901;29;20023;-59
2024/01/10 02:24:18;;;;;;;10.30;3.42;;;;;;;;;;4963133;29;20082;-59
2024/01/10 02:26:44;;;;;;;6.38;3.42;;;;;;;;;;4972733;29;20040;-59
2024/01/10 02:29:09;;;;;;;8.38;3.45;;;;;;;;;;4970395;29;20024;-60
2024/01/10 02:31:35;;;;;;;6.88;3.30;;;;;;;;;;4962114;29;20039;-61
2024/01/10 02:34:00;;;;;;;8.23;2.87;;;;;;;;;;4966074;29;20031;-59
2024/01/10 02:36:26;;;;;;;4.20;2.17;;;;;;;;;;4969703;29;20051;-59
2024/01/10 02:38:51;;;;;;;6.47;3.00;;;;;;;;;;4968252;29;20110;-58
2024/01/10 02:41:17;;;;;;;5.78;3.13;;;;;;;;;;4962585;29;20087;-58
2024/01/10 02:43:43;;;;;;;7.50;3.03;;;;;;;;;;4968669;29;20027;-60
2024/01/10 02:46:08;;;;;;;7.45;3.20;;;;;;;;;;4965823;29;20028;-60
2024/01/10 02:48:34;;;;;;;7.47;2.67;;;;;;;;;;4962912;29;20047;-59
2024/01/10 02:50:59;;;;;;;9.20;3.17;;;;;;;;;;4971082;29;20042;-59
2024/01/10 02:53:24;;;;;;;10.20;3.43;;;;;;;;;;4966481;29;20054;-59
2024/01/10 02:55:50;;;;;;;5.93;3.08;;;;;;;;;;4978559;28;20035;-59
2024/01/10 02:58:15;;;;;;;7.97;2.35;;;;;;;;;;4971301;29;20051;-60
2024/01/10 03:00:41;;;;;;;6.43;2.47;;;;;;;;;;4965915;29;20055;-59
2024/01/10 03:03:06;;;;;;;7.70;2.93;;;;;;;;;;4964354;29;20040;-58
2024/01/10 03:05:32;;;;;;;8.05;3.05;;;;;;;;;;4967883;29;20095;-59
2024/01/10 03:07:57;;;;;;;7.30;3.10;;;;;;;;;;4972484;29;20042;-58
2024/01/10 03:10:23;;;;;;;6.65;3.33;;;;;;;;;;4964915;29;20284;-59
2024/01/10 03:12:48;;;;;;;8.65;3.67;;;;;;;;;;4962601;29;20039;-59
2024/01/10 03:15:14;;;;;;;5.82;3.50;;;;;;;;;;4965098;29;20032;-57
2024/01/10 03:17:39;;;;;;;8.73;3.33;;;;;;;;;;4966323;29;20099;-59
2024/01/10 03:20:05;;;;;;;8.60;3.27;;;;;;;;;;4963534;29;20040;-60
2024/01/10 03:22:31;;;;;;;6.55;2.50;;;;;;;;;;4959529;29;20055;-58
2024/01/10 03:24:57;;;;;;;7.20;3.05;;;;;;;;;;4962055;29;20043;-59
2024/01/10 03:27:22;;;;;;;8.35;3.22;;;;;;;;;;4959100;29;20031;-60
2024/01/10 03:29:48;;;;;;;7.40;2.85;;;;;;;;;;4966941;29;20074;-57
2024/01/10 03:32:13;;;;;;;6.07;2.63;;;;;;;;;;4958925;29;20047;-58
2024/01/10 03:34:40;;;;;;;6.30;3.35;;;;;;;;;;4959262;29;20103;-58
2024/01/10 03:37:06;;;;;;;7.32;3.13;;;;;;;;;;4963000;29;20035;-58
2024/01/10 03:39:31;;;;;;;7.78;3.75;;;;;;;;;;4963217;29;20066;-58
2024/01/10 03:41:57;;;;;;;9.98;4.00;;;;;;;;;;4959051;29;20055;-59
2024/01/10 03:44:22;;;;;;;4.93;3.35;;;;;;;;;;4968851;29;20027;-57
2024/01/10 03:46:48;;;;;;;8.15;3.42;;;;;;;;;;4963661;29;20027;-58
2024/01/10 03:49:13;;;;;;;6.70;2.95;;;;;;;;;;4966877;29;20035;-56
2024/01/10 03:51:40;;;;;;;8.73;3.95;;;;;;;;;;4958676;29;20083;-59
2024/01/10 03:54:05;;;;;;;7.75;3.15;;;;;;;;;;4958926;29;20045;-60
2024/01/10 03:56:31;;;;;;;5.97;2.67;;;;;;;;;;4961068;29;20032;-61
2024/01/10 03:58:57;;;;;;;4.65;2.45;;;;;;;;;;4976671;29;20062;-58
2024/01/10 04:01:23;;;;;;;8.77;3.28;;;;;;;;;;4962272;29;20091;-59
2024/01/10 04:03:49;;;;;;;10.63;4.10;;;;;;;;;;4961585;29;20023;-61
2024/01/10 04:06:15;;;;;;;12.82;3.45;;;;;;;;;;4960253;29;20100;-56
2024/01/10 04:08:40;;;;;;;7.22;3.30;;;;;;;;;;4972950;29;20030;-59
2024/01/10 04:11:05;;;;;;;6.37;3.47;;;;;;;;;;4959791;29;20099;-56
2024/01/10 04:13:31;;;;;;;9.40;3.55;;;;;;;;;;4959435;29;20042;-52
2024/01/10 04:15:56;;;;;;;8.20;3.63;;;;;;;;;;4959660;29;20055;-57
2024/01/10 04:18:22;;;;;;;7.60;2.50;;;;;;;;;;4963709;29;20055;-58
2024/01/10 04:20:49;;;;;;;9.15;3.00;;;;;;;;;;4959528;29;20028;-55
2024/01/10 04:23:14;;;;;;;9.57;3.35;;;;;;;;;;4958730;29;20031;-57
2024/01/10 04:25:40;;;;;;;7.20;3.15;;;;;;;;;;4958278;29;20034;-58
2024/01/10 04:28:05;;;;;;;9.35;3.50;;;;;;;;;;4961401;29;20061;-57
2024/01/10 04:30:31;;;;;;;8.07;3.28;;;;;;;;;;4958649;29;20044;-58
2024/01/10 04:32:56;;;;;;;7.97;3.40;;;;;;;;;;4961578;29;20035;-57
2024/01/10 04:35:22;;;;;;;13.15;4.38;;;;;;;;;;4965829;29;20050;-57
2024/01/10 04:37:47;;;;;;;8.73;3.85;;;;;;;;;;4961567;29;20039;-58
2024/01/10 04:40:13;;;;;;;9.45;3.03;;;;;;;;;;4958203;29;20117;-55
2024/01/10 04:42:38;;;;;;;8.55;3.40;;;;;;;;;;4958165;29;20059;-55
2024/01/10 04:45:04;;;;;;;9.05;3.80;;;;;;;;;;4958139;29;20034;-58
2024/01/10 04:47:30;;;;;;;14.85;3.85;;;;;;;;;;4962722;29;20019;-57
2024/01/10 04:49:55;;;;;;;9.13;3.17;;;;;;;;;;4957933;29;20036;-56
2024/01/10 04:52:21;;;;;;;6.82;3.08;;;;;;;;;;4957977;29;20039;-59
2024/01/10 04:54:46;;;;;;;10.00;3.72;;;;;;;;;;4957782;29;20043;-57
2024/01/10 04:57:12;;;;;;;8.75;4.93;;;;;;;;;;4957830;29;20063;-56
2024/01/10 04:59:37;;;;;;;5.00;2.60;;;;;;;;;;4965380;29;20032;-55
2024/01/10 05:02:03;;;;;;;7.05;3.00;;;;;;;;;;4962368;29;20079;-57
2024/01/10 05:04:28;;;;;;;14.50;4.40;;;;;;;;;;4959301;29;20032;-55
2024/01/10 05:06:54;;;;;;;8.57;3.73;;;;;;;;;;4957583;29;20043;-58
2024/01/10 05:09:19;;;;;;;6.68;3.53;;;;;;;;;;4962667;29;20038;-58
2024/01/10 05:11:50;;;;;;;7.78;2.70;;;;;;;;;;4957568;29;20039;-56
2024/01/10 05:14:19;;;;;;;8.32;3.42;;;;;;;;;;4958070;29;20039;-55
2024/01/10 05:16:45;;;;;;;10.75;4.30;;;;;;;;;;4957697;29;20067;-57
2024/01/10 05:19:10;;;;;;;6.95;3.42;;;;;;;;;;4957202;29;20032;-53
2024/01/10 05:21:36;;;;;;;6.10;2.63;;;;;;;;;;4957508;29;20027;-57
2024/01/10 05:24:01;;;;;;;8.80;3.83;;;;;;;;;;4960296;29;20257;-57
2024/01/10 05:26:27;;;;;;;5.07;2.25;;;;;;;;;;4964470;29;20487;-56
2024/01/10 05:28:52;;;;;;;8.70;3.72;;;;;;;;;;4957002;29;20039;-56
2024/01/10 05:31:18;;;;;;;7.60;3.45;;;;;;;;;;4957350;29;20031;-57
2024/01/10 05:33:43;;;;;;;6.88;3.63;;;;;;;;;;4957728;29;20032;-56
2024/01/10 05:36:12;;;;;;;11.80;4.83;;;;;;;;;;4964137;29;20039;-58
2024/01/10 05:38:38;;;;;;;12.25;4.45;;;;;;;;;;4956272;28;20099;-58
2024/01/10 05:41:03;;;;;;;6.60;3.47;;;;;;;;;;4957364;29;20036;-57
2024/01/10 05:43:29;;;;;;;7.80;3.20;;;;;;;;;;4962836;29;20047;-58
2024/01/10 05:45:54;;;;;;;10.02;3.75;;;;;;;;;;4962532;29;20067;-58
2024/01/10 05:48:20;;;;;;;8.80;4.00;;;;;;;;;;4956901;29;20032;-55
2024/01/10 05:50:45;;;;;;;7.30;4.20;;;;;;;;;;4962947;29;20267;-53
2024/01/10 05:53:13;;;;;;;11.73;4.13;;;;;;;;;;4956810;29;20039;-56
2024/01/10 05:55:39;;;;;;;6.90;3.55;;;;;;;;;;4960326;29;20028;-57
2024/01/10 05:58:05;;;;;;;8.87;4.03;;;;;;;;;;4956898;29;20043;-57
2024/01/10 06:00:31;;;;;;;8.13;4.00;;;;;;;;;;4956727;29;20118;-55
2024/01/10 06:02:57;;;;;;;9.65;3.60;;;;;;;;;;4956814;29;20055;-56
2024/01/10 06:05:22;;;;;;;12.27;4.35;;;;;;;;;;4958160;29;20027;-57
2024/01/10 06:07:48;;;;;;;9.52;3.75;;;;;;;;;;4956509;29;20064;-58
2024/01/10 06:10:13;;;;;;;9.90;3.95;;;;;;;;;;4956943;29;20067;-58
2024/01/10 06:12:39;;;;;;;11.60;5.15;;;;;;;;;;4956648;29;20039;-55
2024/01/10 06:15:04;;;;;;;10.50;3.83;;;;;;;;;;4968385;29;20035;-57
2024/01/10 06:17:31;;;;;;;16.25;4.30;;;;;;;;;;4956955;29;20391;-55
2024/01/10 06:19:58;;;;;;;8.38;4.10;;;;;;;;;;4956262;29;20055;-59
2024/01/10 06:22:25;;;;;;;10.52;4.22;;;;;;;;;;4956681;29;20091;-59
2024/01/10 06:24:50;;;;;;;7.97;3.90;;;;;;;;;;4966209;29;20063;-57
2024/01/10 06:27:18;;;;;;;7.50;3.33;;;;;;;;;;4956867;29;20032;-55
2024/01/10 06:29:44;;;;;;;11.13;4.15;;;;;;;;;;4959291;29;20032;-57
2024/01/10 06:32:10;;;;;;;10.30;4.22;;;;;;;;;;4956767;29;20056;-58
2024/01/10 06:34:36;;;;;;;11.95;4.25;;;;;;;;;;4956434;29;20047;-59
2024/01/10 06:37:02;;;;;;;8.55;3.72;;;;;;;;;;4953149;29;20105;-57
2024/01/10 06:39:28;;;;;;;9.15;4.53;;;;;;;;;;4962314;29;20039;-55
2024/01/10 06:41:53;;;;;;;9.15;3.70;;;;;;;;;;4956391;29;20028;-57
2024/01/10 06:44:19;;;;;;;71.47;11.07;;;;;;;;;;4960345;29;20046;-55
2024/01/10 06:46:45;;;;;;;13.27;4.18;;;;;;;;;;4939710;29;20032;-55
2024/01/10 06:49:10;;;;;;;13.25;4.43;;;;;;;;;;4960162;29;20039;-53
2024/01/10 06:51:36;;;;;;;7.38;4.03;;;;;;;;;;4957397;29;20028;-58
2024/01/10 06:54:05;;;;;;;16.63;5.30;;;;;;;;;;4966428;29;20039;-57
2024/01/10 06:56:31;;;;;;;12.07;4.68;;;;;;;;;;4962982;29;20094;-53
2024/01/10 06:58:57;;;;;;;8.77;4.00;;;;;;;;;;4965660;29;20051;-53
2024/01/10 07:01:23;;;;;;;13.30;4.03;;;;;;;;;;4963435;29;20047;-56
2024/01/10 07:03:50;;;;;;;10.40;4.15;;;;;;;;;;4961129;29;20039;-59
2024/01/10 07:06:15;;;;;;;11.75;4.63;;;;;;;;;;4961167;29;20107;-56
2024/01/10 07:08:42;;;;;;;9.35;4.53;;;;;;;;;;4959603;29;20040;-52
2024/01/10 07:11:08;;;;;;;10.45;4.90;;;;;;;;;;4973518;29;20148;-56
2024/01/10 07:13:33;;;;;;;11.98;4.70;;;;;;;;;;4963580;29;20043;-56
2024/01/10 07:16:01;;;;;;;8.47;3.67;;;;;;;;;;4966884;29;20032;-57
2024/01/10 07:18:30;;;;;;;13.10;4.80;;;;;;;;;;4959494;29;20116;-56
2024/01/10 07:20:56;;;;;;;12.57;5.75;;;;;;;;;;4970766;29;20027;-56
2024/01/10 07:23:22;;;;;;;8.95;4.28;;;;;;;;;;4959777;29;20032;-58
2024/01/10 07:25:48;;;;;;;12.35;4.93;;;;;;;;;;4971189;29;20035;-56
2024/01/10 07:28:14;;;;;;;12.20;5.30;;;;;;;;;;4947649;29;20035;-57
2024/01/10 07:30:39;;;;;;;7.88;3.78;;;;;;;;;;4958871;29;20035;-56
2024/01/10 07:33:05;;;;;;;6.73;3.67;;;;;;;;;;4959204;29;20040;-56
2024/01/10 07:35:31;;;;;;;11.98;5.45;;;;;;;;;;4967536;29;20028;-58
2024/01/10 07:37:56;;;;;;;14.80;5.68;;;;;;;;;;4964510;29;20039;-56
2024/01/10 07:40:22;;;;;;;11.10;5.63;;;;;;;;;;4963063;29;20042;-57
2024/01/10 07:42:48;;;;;;;11.55;5.07;;;;;;;;;;4959250;29;20039;-57
2024/01/10 07:45:13;;;;;;;10.77;5.75;;;;;;;;;;4959934;29;20112;-57
2024/01/10 07:47:39;;;;;;;9.82;4.95;;;;;;;;;;4950997;29;20067;-55
2024/01/10 07:50:05;;;;;;;12.38;5.65;;;;;;;;;;4945103;29;20027;-56
2024/01/10 07:52:32;;;;;;;12.90;5.00;;;;;;;;;;4958314;29;20108;-56
2024/01/10 07:54:57;;;;;;;15.18;5.80;;;;;;;;;;4960200;29;20031;-55
2024/01/10 07:57:24;;;;;;;;;;;;;;;;;;4942380;29;20071;-55
2024/01/10 07:59:50;;;;;;;13.90;5.73;;;;;;;;;;4960754;29;19910;-58
2024/01/10 08:02:16;;;;;;;13.40;5.85;;;;;;;;;;4966153;28;20103;-57
2024/01/10 08:04:42;;;;;;;15.98;5.22;;;;;;;;;;4960779;29;20043;-53
2024/01/10 08:07:07;;;;;;;12.40;5.28;;;;;;;;;;4938855;29;20036;-55
2024/01/10 08:09:33;;;;;;;12.23;6.30;;;;;;;;;;4957925;29;20051;-56
2024/01/10 08:11:58;;;;;;;18.07;5.97;;;;;;;;;;4956314;29;20042;-51
2024/01/10 08:14:24;;;;;;;12.27;5.95;;;;;;;;;;4959002;29;20036;-54
2024/01/10 08:16:50;;;;;;;14.68;5.32;;;;;;;;;;4957462;29;20043;-58
2024/01/10 08:19:16;;;;;;;;;;;;;;;;;;4964692;29;20040;-55
2024/01/10 08:21:42;;;;;;;15.87;5.47;;;;;;;;;;4961055;29;19918;-55
2024/01/10 08:24:07;;;;;;;11.23;5.00;;;;;;;;;;4958426;29;20039;-55
2024/01/10 08:26:33;;;;;;;14.70;5.68;;;;;;;;;;4955302;29;20032;-57
2024/01/10 08:28:58;;;;;;;14.17;5.50;;;;;;;;;;4954521;29;20075;-57
2024/01/10 08:31:26;;;;;;;10.43;5.68;;;;;;;;;;4959484;29;20439;-53
2024/01/10 08:33:52;;;;;;;12.80;5.50;;;;;;;;;;4957538;29;20079;-57
2024/01/10 08:36:17;;;;;;;12.55;5.88;;;;;;;;;;4958178;29;20032;-57
2024/01/10 08:38:43;;;;;;;10.80;5.80;;;;;;;;;;4958062;29;20039;-54
2024/01/10 08:41:11;;;;;;;19.23;6.40;;;;;;;;;;4966095;29;20039;-52
2024/01/10 08:43:36;;;;;;;12.77;6.07;;;;;;;;;;4957566;29;20039;-54
2024/01/10 08:46:02;;;;;;;13.30;5.57;;;;;;;;;;4967112;29;20063;-54
2024/01/10 08:48:27;;;;;;;20.90;6.32;;;;;;;;;;4957779;29;20032;-53
2024/01/10 08:50:55;;;;;;;13.87;5.90;;;;;;;;;;4957460;29;20063;-53
2024/01/10 08:53:22;;;;;;;15.52;6.63;;;;;;;;;;4957318;29;20045;-53
2024/01/10 08:55:48;;;;;;;13.95;6.22;;;;;;;;;;4948669;29;20028;-55
2024/01/10 08:58:14;;;;;;;17.42;7.40;;;;;;;;;;4957685;29;20059;-55
2024/01/10 09:00:39;;;;;;;11.88;3.72;;;;;;;;;;4944820;29;20043;-53
2024/01/10 09:03:05;;;;;;;15.73;6.32;;;;;;;;;;4957255;29;20042;-56
2024/01/10 09:05:30;;;;;;;12.05;6.78;;;;;;;;;;4963452;29;20048;-58
2024/01/10 09:07:56;;;;;;;12.82;6.15;;;;;;;;;;4957617;29;20046;-53
2024/01/10 09:10:21;;;;;;;13.00;5.28;;;;;;;;;;4959099;29;20087;-55
2024/01/10 09:12:48;;;;;;;13.13;4.70;;;;;;;;;;4965609;29;20031;-55
2024/01/10 09:15:14;;;;;;;16.88;6.35;;;;;;;;;;4964530;28;20035;-52
2024/01/10 09:17:43;;;;;;;14.45;5.57;;;;;;;;;;4957436;29;20036;-54
2024/01/10 09:20:10;;;;;;;13.68;6.85;;;;;;;;;;4957858;29;20055;-52
2024/01/10 09:22:35;;;;;;;21.25;7.65;;;;;;;;;;4961001;29;20039;-56
2024/01/10 09:25:03;;;;;;;13.27;6.55;;;;;;;;;;4966569;29;20039;-58
2024/01/10 09:27:33;;;;;;;18.77;7.38;;;;;;;;;;4957301;29;20059;-53
2024/01/10 09:29:59;;;;;;;15.02;6.43;;;;;;;;;;4958375;29;20023;-54
2024/01/10 09:32:25;;;;;;;18.95;7.03;;;;;;;;;;4961828;29;20103;-58
2024/01/10 09:34:51;;;;;;;17.38;6.50;;;;;;;;;;4964525;29;20035;-56
2024/01/10 09:37:16;;;;;;;15.70;6.93;;;;;;;;;;4956905;29;20068;-58
2024/01/10 09:39:42;;;;;;;18.07;6.53;;;;;;;;;;4956754;29;20285;-58
2024/01/10 09:42:08;;;;;;;;;;;;;;;;;;4962280;29;20124;-55
2024/01/10 09:44:33;;;;;;;17.30;6.67;;;;;;;;;;4957026;29;19911;-57
2024/01/10 09:47:00;;;;;;;15.43;6.83;;;;;;;;;;4956998;29;20027;-57
2024/01/10 09:49:25;;;;;;;17.43;6.83;;;;;;;;;;4956720;29;20039;-56
2024/01/10 09:51:53;;;;;;;14.15;6.55;;;;;;;;;;4962144;29;20035;-55
2024/01/10 09:54:20;;;;;;;14.85;6.32;;;;;;;;;;4956796;29;20039;-55
2024/01/10 09:56:46;;;;;;;16.73;7.07;;;;;;;;;;4956679;29;20027;-57
2024/01/10 09:59:12;;;;;;;16.85;8.18;;;;;;;;;;4961130;29;20033;-56
2024/01/10 10:01:40;;;;;;;18.35;8.20;;;;;;;;;;4956496;29;20032;-58
2024/01/10 10:04:07;;;;;;;16.25;7.07;;;;;;;;;;4956369;29;20039;-59
2024/01/10 10:06:34;;;;;;;13.50;6.85;;;;;;;;;;4958858;29;20036;-58
2024/01/10 10:08:59;;;;;;;15.38;7.25;;;;;;;;;;4956383;29;20095;-57
2024/01/10 10:11:25;;;;;;;19.52;7.60;;;;;;;;;;4959697;29;20119;-56
2024/01/10 10:13:50;;;;;;;17.07;7.33;;;;;;;;;;4933169;29;20060;-58
2024/01/10 10:16:22;;;;;;;17.05;7.70;;;;;;;;;;4953959;29;20040;-56
2024/01/10 10:18:49;;;;;;;16.90;8.10;;;;;;;;;;4947817;29;20059;-57
2024/01/10 10:21:15;;;;;;;16.37;8.27;;;;;;;;;;4962677;29;20266;-59
2024/01/10 10:23:43;;;;;;;15.52;8.13;;;;;;;;;;4956059;29;20267;-58
2024/01/10 10:26:21;;;;;;;15.97;7.50;;;;;;;;;;4960426;29;20036;-57
2024/01/10 10:28:47;;;;;;;13.83;7.93;;;;;;;;;;4959066;29;20281;-60
2024/01/10 10:31:13;;;;;;;14.65;8.13;;;;;;;;;;4961933;29;20270;-59
2024/01/10 10:33:39;;;;;;;16.35;8.13;;;;;;;;;;4959198;29;20019;-58
2024/01/10 10:36:05;;;;;;;14.10;7.30;;;;;;;;;;4965075;29;20132;-58
2024/01/10 10:38:31;;;;;;;14.95;7.72;;;;;;;;;;4971587;29;20036;-58
2024/01/10 10:40:58;;;;;;;16.55;8.38;;;;;;;;;;4965033;29;20225;-57
2024/01/10 10:43:24;;;;;;;13.10;8.07;;;;;;;;;;4963657;29;20035;-57
2024/01/10 10:45:49;;;;;;;17.20;8.63;;;;;;;;;;4974919;29;20338;-59
2024/01/10 10:48:20;;;;;;;16.73;7.97;;;;;;;;;;4960011;29;20040;-58
2024/01/10 10:51:08;;;;;;;14.13;8.23;;;;;;;;;;4952884;29;20074;-55
2024/01/10 10:53:39;;;;;;;15.47;8.07;;;;;;;;;;4956078;29;20273;-57
2024/01/10 10:56:05;;;;;;;20.40;8.60;;;;;;;;;;4961688;29;20535;-56
2024/01/10 10:58:35;;;;;;;16.80;7.85;;;;;;;;;;4959462;29;20278;-55
2024/01/10 11:01:02;;;;;;;15.00;7.53;;;;;;;;;;4962310;29;20091;-56
2024/01/10 11:03:29;;;;;;;12.37;7.03;;;;;;;;;;4959531;29;20281;-58
2024/01/10 11:05:54;;;;;;;14.87;7.67;;;;;;;;;;4959973;29;20280;-59
2024/01/10 11:08:21;;;;;;;14.50;7.38;;;;;;;;;;4959021;29;20282;-59
2024/01/10 11:10:49;;;;;;;16.30;7.77;;;;;;;;;;4959034;29;20115;-59
2024/01/10 11:13:21;;;;;;;14.97;7.37;;;;;;;;;;4960972;29;20071;-59
2024/01/10 11:15:52;;;;;;;17.20;8.17;;;;;;;;;;4960142;29;20281;-60
2024/01/10 11:18:30;;;;;;;15.10;7.40;;;;;;;;;;4960556;29;20272;-59
2024/01/10 11:20:55;;;;;;;19.47;8.73;;;;;;;;;;4955552;29;20325;-58
2024/01/10 11:23:37;;;;;;;16.23;7.63;;;;;;;;;;4958886;29;20302;-60
2024/01/10 11:26:02;;;;;;;18.60;8.87;;;;;;;;;;4966373;29;20055;-60
2024/01/10 11:28:30;;;;;;;15.57;7.57;;;;;;;;;;4962734;29;20043;-59
2024/01/10 11:30:56;;;;;;;13.63;7.33;;;;;;;;;;4959762;29;20040;-57
2024/01/10 11:33:30;;;;;;;14.68;7.80;;;;;;;;;;4959001;29;20020;-58
2024/01/10 11:36:05;;;;;;;14.17;7.37;;;;;;;;;;4957528;29;20095;-59
2024/01/10 11:38:31;;;;;;;17.53;8.47;;;;;;;;;;4957651;29;20036;-57
2024/01/10 11:40:56;;;;;;;19.08;8.00;;;;;;;;;;4958800;29;20071;-59
2024/01/10 11:43:22;;;;;;;17.27;9.18;;;;;;;;;;4969579;28;20035;-57
2024/01/10 11:45:51;;;;;;;18.63;7.57;;;;;;;;;;4960965;29;20027;-59
2024/01/10 11:48:24;;;;;;;15.17;8.47;;;;;;;;;;4958989;29;20040;-59
2024/01/10 11:50:51;;;;;;;18.73;8.77;;;;;;;;;;4958711;29;20027;-60
2024/01/10 11:53:39;;;;;;;19.57;8.87;;;;;;;;;;4966333;29;20103;-59
2024/01/10 11:56:11;;;;;;;16.63;8.20;;;;;;;;;;4960837;29;20440;-61
2024/01/10 11:58:53;;;;;;;15.03;8.33;;;;;;;;;;4959952;29;20027;-59
2024/01/10 12:01:18;;;;;;;18.73;9.03;;;;;;;;;;4956614;29;20095;-61
2024/01/10 12:03:44;;;;;;;20.45;8.93;;;;;;;;;;4962680;29;20039;-58
2024/01/10 12:06:10;;;;;;;18.05;8.85;;;;;;;;;;4958303;29;20028;-58
2024/01/10 12:08:36;;;;;;;15.15;8.25;;;;;;;;;;4958512;29;20035;-59
2024/01/10 12:11:01;;;;;;;16.50;8.50;;;;;;;;;;4957866;29;20044;-59
2024/01/10 12:13:27;;;;;;;18.25;8.18;;;;;;;;;;4962631;29;20051;-61
2024/01/10 12:15:52;;;;;;;15.47;8.20;;;;;;;;;;4952502;29;20263;-60
2024/01/10 12:18:18;;;;;;;15.02;8.18;;;;;;;;;;4964598;29;20035;-60
2024/01/10 12:20:45;;;;;;;17.60;8.15;;;;;;;;;;4956262;29;20064;-62
2024/01/10 12:23:11;;;;;;;21.73;9.10;;;;;;;;;;4960016;29;20036;-60
2024/01/10 12:25:36;;;;;;;22.73;8.82;;;;;;;;;;4962216;29;20035;-59
2024/01/10 12:28:03;;;;;;;17.55;9.38;;;;;;;;;;4961845;29;20032;-59
2024/01/10 12:30:28;;;;;;;18.27;9.35;;;;;;;;;;4957627;29;20027;-58
2024/01/10 12:32:54;;;;;;;17.90;8.17;;;;;;;;;;4969970;29;20047;-58
2024/01/10 12:35:21;;;;;;;24.15;9.65;;;;;;;;;;4961022;29;20132;-59
2024/01/10 12:37:56;;;;;;;18.77;8.67;;;;;;;;;;4958701;29;20065;-59
2024/01/10 12:40:22;;;;;;;19.50;9.43;;;;;;;;;;4952704;29;20055;-59
2024/01/10 12:42:47;;;;;;;13.50;7.45;;;;;;;;;;4962570;29;20036;-59
2024/01/10 12:45:22;;;;;;;15.00;8.60;;;;;;;;;;4964601;29;20036;-57
2024/01/10 12:47:48;;;;;;;17.80;8.90;;;;;;;;;;4959113;29;20031;-59
2024/01/10 12:50:13;;;;;;;12.70;7.27;;;;;;;;;;4947300;29;20039;-59
2024/01/10 12:52:40;;;;;;;15.95;8.90;;;;;;;;;;4956657;29;20040;-59
2024/01/10 12:55:05;;;;;;;15.33;8.73;;;;;;;;;;4956776;29;20142;-59
2024/01/10 12:57:31;;;;;;;17.42;9.13;;;;;;;;;;4961162;29;20031;-58
2024/01/10 12:59:57;;;;;;;18.58;8.82;;;;;;;;;;4957572;29;20035;-59
2024/01/10 13:02:22;;;;;;;17.75;8.95;;;;;;;;;;4957490;29;20095;-59
2024/01/10 13:04:48;;;;;;;14.05;7.68;;;;;;;;;;4957033;29;20079;-60
2024/01/10 13:07:13;;;;;;;16.88;8.30;;;;;;;;;;4958001;29;20032;-60
2024/01/10 13:09:39;;;;;;;17.77;9.83;;;;;;;;;;4957171;29;20083;-60
2024/01/10 13:12:04;;;;;;;17.58;8.52;;;;;;;;;;4957252;29;20043;-60
2024/01/10 13:14:31;;;;;;;16.88;9.77;;;;;;;;;;4957267;29;20050;-60
2024/01/10 13:16:57;;;;;;;18.60;9.00;;;;;;;;;;4961622;29;20024;-60
2024/01/10 13:19:22;;;;;;;15.77;7.75;;;;;;;;;;4957451;29;20039;-59
2024/01/10 13:21:47;;;;;;;15.93;8.67;;;;;;;;;;4956774;29;20078;-60
2024/01/10 13:24:13;;;;;;;25.37;8.67;;;;;;;;;;4956576;29;20028;-61
2024/01/10 13:26:38;;;;;;;16.73;8.43;;;;;;;;;;4960044;29;20115;-60
2024/01/10 13:29:03;;;;;;;16.02;8.65;;;;;;;;;;4956979;29;20032;-59
2024/01/10 13:31:29;;;;;;;18.05;9.55;;;;;;;;;;4956551;29;20031;-58
2024/01/10 13:33:55;;;;;;;15.20;8.82;;;;;;;;;;4959535;29;20051;-60
2024/01/10 13:36:20;;;;;;;15.50;7.93;;;;;;;;;;4963702;29;20042;-60
2024/01/10 13:38:45;;;;;;;17.20;9.07;;;;;;;;;;4956676;29;20293;-59
2024/01/10 13:41:10;;;;;;;15.93;8.93;;;;;;;;;;4956508;29;20027;-60
2024/01/10 13:43:36;;;;;;;17.67;9.32;;;;;;;;;;4950361;29;20048;-60
2024/01/10 13:46:03;;;;;;;17.73;9.10;;;;;;;;;;4956207;29;20095;-60
2024/01/10 13:48:28;;;;;;;15.73;7.97;;;;;;;;;;4960687;29;20031;-60
2024/01/10 13:50:54;;;;;;;19.55;9.38;;;;;;;;;;4956276;29;20083;-60
2024/01/10 13:53:20;;;;;;;15.38;7.78;;;;;;;;;;4958794;29;20071;-60
2024/01/10 13:55:46;;;;;;;19.30;9.80;;;;;;;;;;4957449;29;20046;-61
2024/01/10 13:58:11;;;;;;;;;;;;;;;;;;4958481;29;20044;-59
2024/01/10 14:00:38;;;;;;;17.40;8.57;;;;;;;;;;4956179;29;19973;-60
2024/01/10 14:03:03;;;;;;;;;;;;;;;;;;4959438;29;20092;-60
2024/01/10 14:05:28;;;;;;;21.13;9.07;;;;;;;;;;4957216;29;19910;-61
2024/01/10 14:07:54;;;;;;;16.63;8.87;;;;;;;;;;4956681;29;20060;-59
2024/01/10 14:10:20;;;;;;;16.45;8.88;;;;;;;;;;4956005;29;20040;-59
2024/01/10 14:12:48;;;;;;;16.25;8.75;;;;;;;;;;4955914;29;20063;-60
2024/01/10 14:15:13;;;;;;;17.47;8.80;;;;;;;;;;4956739;29;20082;-59
2024/01/10 14:17:40;;;;;;;19.20;9.45;;;;;;;;;;4964938;29;20039;-59
2024/01/10 14:20:08;;;;;;;16.02;8.55;;;;;;;;;;4956700;29;20095;-60
2024/01/10 14:22:37;;;;;;;16.40;8.20;;;;;;;;;;4956467;29;20031;-59
2024/01/10 14:25:05;;;;;;;20.07;8.70;;;;;;;;;;4956173;29;20027;-60
2024/01/10 14:27:31;;;;;;;27.47;9.77;;;;;;;;;;4958563;29;20060;-60
2024/01/10 14:29:57;;;;;;;16.80;8.52;;;;;;;;;;4955776;29;20036;-61
2024/01/10 14:32:22;;;;;;;16.00;8.13;;;;;;;;;;4960406;29;20088;-60